Airfield :
LOGIN :

Register | Disclaimer

   EN    FR    IT 

 










Legend :    VFR   Marginal VFR   IFR   Intensive IFR   Very Intensive IFR
Visi :
Ceiling :
>= 8 km
>= 3000ft
5 to 8 km
1000 to 3000 ft
1500m to 5 km
500 to 1000 ft
800 to 1500m
200 to 500 ft
< 800m
< 200 ft
Symbols :   Thunderstorms  Fog  Heavy snow  Heavy precipitations  Wind > 20 kt
SIGMETs :     Misc.  Thunderstorms  Icing  Turbulence  Mountain Waves  Volcanic Ashes







- Airport Elevation : 39 ft
- IATA code : CTA


LICC - Catania Fontanarossa

CURRENT METAR :
  • 251450Z 12006KT 070V170 9999 FEW050 24/15 Q1016

EXPIRED METARs :
  • 251420Z 10007KT 9999 SCT080 24/16 Q1016
  • 251350Z 10007KT 060V140 9999 SCT060 24/16 Q1016
  • 251320Z 08008KT 9999 SCT060 24/16 Q1016
  • 251250Z 07011KT 9999 SCT060 24/16 Q1016
  • 251220Z 05012KT 9999 BKN080 23/16 Q1016

TAF TAF LICC
Valid from the 25 at 12:00 until the 26 at 12:00 UTC


251100Z 2512/2612 08010KT 9999 SCT030
BECMG 2518/2520 25007KT
BECMG 2608/2610 08010KT
No reported NOTAMs for that airfield.
1 SIGMET reported for the Roma FIR (LIRR) :
 
Severe turbulence
LIRR SIGMET 1 VALID 251230/251630 LIIB
LIRR ROMA FIR SEV TURB FCST WI N4305 E00945 - N3759 E01311 - N3643 E01508 - N3853 E01703 - N3856 E01630 - N3911 E01618 - N4112 E01506 - N4125 E01423 - N4259 E01304 - N4328 E01317 - N4343 E01108 - N4335 E01018 - N4305 E00945 ABV FL270 STNR NC=



MET'MAP, your aeronautical weather chart ! - Copyright ORBIFLY December 2007 - Disclaimer

ORBIFLY MET'MAP TEAM :

Programming & Development : Alexandra Zaïnal
Concept & Development : Baudouin d'Aumeries
Co-Development & Prog : Marc-Olivier Méhu
Technical & hardware support : Manuel Goepfert

Contact : metmap@orbifly.com




SOURCES & CREDITS :

   NOAA